sensor_id;sensor_type;location;lat;lon;timestamp;P1;durP1;ratioP1;P2;durP2;ratioP2
60867;SDS011;46702;48.370;10.794;2023-08-20T00:00:26;7.15;;;4.68;;
60867;SDS011;46702;48.370;10.794;2023-08-20T00:03:00;6.40;;;4.43;;
60867;SDS011;46702;48.370;10.794;2023-08-20T00:05:38;7.88;;;5.07;;
60867;SDS011;46702;48.370;10.794;2023-08-20T00:08:04;6.95;;;4.78;;
60867;SDS011;46702;48.370;10.794;2023-08-20T00:10:31;5.60;;;4.55;;
60867;SDS011;46702;48.370;10.794;2023-08-20T00:12:57;7.88;;;4.95;;
60867;SDS011;46702;48.370;10.794;2023-08-20T00:15:23;6.22;;;4.78;;
60867;SDS011;46702;48.370;10.794;2023-08-20T00:17:51;7.15;;;4.30;;
60867;SDS011;46702;48.370;10.794;2023-08-20T00:20:18;9.13;;;4.43;;
60867;SDS011;46702;48.370;10.794;2023-08-20T00:22:44;5.95;;;4.32;;
60867;SDS011;46702;48.370;10.794;2023-08-20T00:25:11;9.13;;;4.88;;
60867;SDS011;46702;48.370;10.794;2023-08-20T00:27:38;6.05;;;4.68;;
60867;SDS011;46702;48.370;10.794;2023-08-20T00:30:05;5.55;;;4.88;;
60867;SDS011;46702;48.370;10.794;2023-08-20T00:32:31;7.18;;;4.43;;
60867;SDS011;46702;48.370;10.794;2023-08-20T00:34:56;9.63;;;4.47;;
60867;SDS011;46702;48.370;10.794;2023-08-20T00:37:22;6.07;;;4.13;;
60867;SDS011;46702;48.370;10.794;2023-08-20T00:39:48;5.82;;;4.55;;
60867;SDS011;46702;48.370;10.794;2023-08-20T00:42:14;6.80;;;4.00;;
60867;SDS011;46702;48.370;10.794;2023-08-20T00:44:39;6.30;;;4.32;;
60867;SDS011;46702;48.370;10.794;2023-08-20T00:47:12;5.15;;;4.38;;
60867;SDS011;46702;48.370;10.794;2023-08-20T00:49:39;6.97;;;4.10;;
60867;SDS011;46702;48.370;10.794;2023-08-20T00:52:06;4.82;;;3.95;;
60867;SDS011;46702;48.370;10.794;2023-08-20T00:54:34;9.25;;;4.20;;
60867;SDS011;46702;48.370;10.794;2023-08-20T00:57:00;5.85;;;4.18;;
60867;SDS011;46702;48.370;10.794;2023-08-20T00:59:27;5.67;;;4.37;;
60867;SDS011;46702;48.370;10.794;2023-08-20T01:04:20;6.15;;;4.38;;
60867;SDS011;46702;48.370;10.794;2023-08-20T01:12:41;6.90;;;4.60;;
60867;SDS011;46702;48.370;10.794;2023-08-20T01:15:06;9.70;;;4.70;;
60867;SDS011;46702;48.370;10.794;2023-08-20T01:17:38;5.15;;;4.55;;
60867;SDS011;46702;48.370;10.794;2023-08-20T01:20:05;7.22;;;4.13;;
60867;SDS011;46702;48.370;10.794;2023-08-20T01:30:52;6.03;;;4.63;;
60867;SDS011;46702;48.370;10.794;2023-08-20T01:33:23;6.07;;;4.30;;
60867;SDS011;46702;48.370;10.794;2023-08-20T01:35:50;6.22;;;4.15;;
60867;SDS011;46702;48.370;10.794;2023-08-20T01:38:26;5.78;;;4.40;;
60867;SDS011;46702;48.370;10.794;2023-08-20T01:40:51;6.03;;;3.88;;
60867;SDS011;46702;48.370;10.794;2023-08-20T01:43:17;4.97;;;4.10;;
60867;SDS011;46702;48.370;10.794;2023-08-20T01:45:43;5.35;;;4.45;;
60867;SDS011;46702;48.370;10.794;2023-08-20T01:48:08;5.75;;;4.22;;
60867;SDS011;46702;48.370;10.794;2023-08-20T01:50:34;6.07;;;4.30;;
60867;SDS011;46702;48.370;10.794;2023-08-20T01:53:01;7.72;;;4.43;;
60867;SDS011;46702;48.370;10.794;2023-08-20T01:55:28;4.90;;;4.40;;
60867;SDS011;46702;48.370;10.794;2023-08-20T01:57:53;6.65;;;4.50;;
60867;SDS011;46702;48.370;10.794;2023-08-20T02:00:19;6.72;;;4.93;;
60867;SDS011;46702;48.370;10.794;2023-08-20T02:02:44;7.40;;;4.75;;
60867;SDS011;46702;48.370;10.794;2023-08-20T02:05:10;8.85;;;4.63;;
60867;SDS011;46702;48.370;10.794;2023-08-20T02:07:35;8.00;;;4.63;;
60867;SDS011;46702;48.370;10.794;2023-08-20T02:10:01;5.25;;;4.30;;
60867;SDS011;46702;48.370;10.794;2023-08-20T02:12:28;5.05;;;4.55;;
60867;SDS011;46702;48.370;10.794;2023-08-20T02:14:53;6.85;;;4.47;;
60867;SDS011;46702;48.370;10.794;2023-08-20T02:17:19;4.82;;;4.22;;
60867;SDS011;46702;48.370;10.794;2023-08-20T02:19:44;5.45;;;4.53;;
60867;SDS011;46702;48.370;10.794;2023-08-20T02:22:10;7.13;;;4.80;;
60867;SDS011;46702;48.370;10.794;2023-08-20T02:24:35;6.45;;;4.68;;
60867;SDS011;46702;48.370;10.794;2023-08-20T02:27:02;8.77;;;4.47;;
60867;SDS011;46702;48.370;10.794;2023-08-20T02:29:27;5.38;;;4.00;;
60867;SDS011;46702;48.370;10.794;2023-08-20T02:31:53;4.90;;;4.50;;
60867;SDS011;46702;48.370;10.794;2023-08-20T02:34:19;6.25;;;4.53;;
60867;SDS011;46702;48.370;10.794;2023-08-20T02:36:44;6.88;;;4.97;;
60867;SDS011;46702;48.370;10.794;2023-08-20T02:39:10;5.93;;;3.92;;
60867;SDS011;46702;48.370;10.794;2023-08-20T02:41:35;4.03;;;3.53;;
60867;SDS011;46702;48.370;10.794;2023-08-20T02:44:01;5.22;;;3.88;;
60867;SDS011;46702;48.370;10.794;2023-08-20T02:46:28;4.53;;;3.75;;
60867;SDS011;46702;48.370;10.794;2023-08-20T02:48:54;5.70;;;3.67;;
60867;SDS011;46702;48.370;10.794;2023-08-20T02:51:19;4.32;;;3.92;;
60867;SDS011;46702;48.370;10.794;2023-08-20T02:53:45;4.28;;;3.83;;
60867;SDS011;46702;48.370;10.794;2023-08-20T02:56:10;3.83;;;3.40;;
60867;SDS011;46702;48.370;10.794;2023-08-20T02:58:36;4.90;;;3.70;;
60867;SDS011;46702;48.370;10.794;2023-08-20T03:01:01;4.15;;;3.65;;
60867;SDS011;46702;48.370;10.794;2023-08-20T03:03:27;4.18;;;3.78;;
60867;SDS011;46702;48.370;10.794;2023-08-20T03:05:53;4.25;;;3.63;;
60867;SDS011;46702;48.370;10.794;2023-08-20T03:08:18;4.97;;;4.18;;
60867;SDS011;46702;48.370;10.794;2023-08-20T03:10:44;6.03;;;4.15;;
60867;SDS011;46702;48.370;10.794;2023-08-20T03:13:10;6.20;;;3.78;;
60867;SDS011;46702;48.370;10.794;2023-08-20T03:15:36;8.05;;;4.70;;
60867;SDS011;46702;48.370;10.794;2023-08-20T03:18:02;5.88;;;4.70;;
60867;SDS011;46702;48.370;10.794;2023-08-20T03:20:28;5.45;;;4.35;;
60867;SDS011;46702;48.370;10.794;2023-08-20T03:22:56;8.75;;;4.32;;
60867;SDS011;46702;48.370;10.794;2023-08-20T03:25:21;6.65;;;4.70;;
60867;SDS011;46702;48.370;10.794;2023-08-20T03:27:47;6.65;;;4.40;;
60867;SDS011;46702;48.370;10.794;2023-08-20T03:30:13;7.22;;;4.53;;
60867;SDS011;46702;48.370;10.794;2023-08-20T03:32:38;6.35;;;4.90;;
60867;SDS011;46702;48.370;10.794;2023-08-20T03:35:04;6.78;;;4.38;;
60867;SDS011;46702;48.370;10.794;2023-08-20T03:37:30;4.93;;;3.92;;
60867;SDS011;46702;48.370;10.794;2023-08-20T03:39:55;6.95;;;3.92;;
60867;SDS011;46702;48.370;10.794;2023-08-20T03:42:21;5.32;;;3.83;;
60867;SDS011;46702;48.370;10.794;2023-08-20T03:44:47;4.40;;;4.00;;
60867;SDS011;46702;48.370;10.794;2023-08-20T03:47:12;4.50;;;3.72;;
60867;SDS011;46702;48.370;10.794;2023-08-20T03:49:38;2.97;;;2.78;;
60867;SDS011;46702;48.370;10.794;2023-08-20T03:52:03;3.47;;;3.28;;
60867;SDS011;46702;48.370;10.794;2023-08-20T03:54:31;3.20;;;2.70;;
60867;SDS011;46702;48.370;10.794;2023-08-20T03:56:57;4.95;;;2.88;;
60867;SDS011;46702;48.370;10.794;2023-08-20T03:59:23;4.80;;;3.28;;
60867;SDS011;46702;48.370;10.794;2023-08-20T04:01:49;6.00;;;4.15;;
60867;SDS011;46702;48.370;10.794;2023-08-20T04:04:14;4.93;;;3.85;;
60867;SDS011;46702;48.370;10.794;2023-08-20T04:06:40;5.75;;;4.63;;
60867;SDS011;46702;48.370;10.794;2023-08-20T04:09:05;5.10;;;4.32;;
60867;SDS011;46702;48.370;10.794;2023-08-20T04:11:32;5.25;;;4.70;;
60867;SDS011;46702;48.370;10.794;2023-08-20T04:13:57;7.18;;;4.05;;
60867;SDS011;46702;48.370;10.794;2023-08-20T04:16:23;4.88;;;4.38;;
60867;SDS011;46702;48.370;10.794;2023-08-20T04:18:49;7.03;;;4.80;;
60867;SDS011;46702;48.370;10.794;2023-08-20T04:21:15;5.18;;;4.53;;
60867;SDS011;46702;48.370;10.794;2023-08-20T04:23:40;6.07;;;4.07;;
60867;SDS011;46702;48.370;10.794;2023-08-20T04:26:06;3.58;;;2.80;;
60867;SDS011;46702;48.370;10.794;2023-08-20T04:28:32;3.42;;;2.95;;
60867;SDS011;46702;48.370;10.794;2023-08-20T04:30:58;3.33;;;2.75;;
60867;SDS011;46702;48.370;10.794;2023-08-20T04:33:25;3.00;;;2.78;;
60867;SDS011;46702;48.370;10.794;2023-08-20T04:35:51;3.60;;;3.30;;
60867;SDS011;46702;48.370;10.794;2023-08-20T04:38:16;4.75;;;4.10;;
60867;SDS011;46702;48.370;10.794;2023-08-20T04:40:42;5.50;;;4.57;;
60867;SDS011;46702;48.370;10.794;2023-08-20T04:43:10;6.65;;;5.03;;
60867;SDS011;46702;48.370;10.794;2023-08-20T04:45:36;5.32;;;4.65;;
60867;SDS011;46702;48.370;10.794;2023-08-20T04:48:01;4.68;;;4.07;;
60867;SDS011;46702;48.370;10.794;2023-08-20T04:50:27;6.35;;;4.40;;
60867;SDS011;46702;48.370;10.794;2023-08-20T04:52:53;4.60;;;4.20;;
60867;SDS011;46702;48.370;10.794;2023-08-20T04:55:19;4.95;;;4.18;;
60867;SDS011;46702;48.370;10.794;2023-08-20T04:57:45;7.50;;;4.93;;
60867;SDS011;46702;48.370;10.794;2023-08-20T05:00:11;6.30;;;4.55;;
60867;SDS011;46702;48.370;10.794;2023-08-20T05:02:36;7.18;;;4.88;;
60867;SDS011;46702;48.370;10.794;2023-08-20T05:05:02;5.85;;;4.75;;
60867;SDS011;46702;48.370;10.794;2023-08-20T05:07:28;7.93;;;5.43;;
60867;SDS011;46702;48.370;10.794;2023-08-20T05:09:54;7.40;;;4.93;;
60867;SDS011;46702;48.370;10.794;2023-08-20T05:12:19;8.13;;;5.40;;
60867;SDS011;46702;48.370;10.794;2023-08-20T05:14:45;6.68;;;5.70;;
60867;SDS011;46702;48.370;10.794;2023-08-20T05:17:10;6.28;;;5.35;;
60867;SDS011;46702;48.370;10.794;2023-08-20T05:19:36;6.40;;;5.10;;
60867;SDS011;46702;48.370;10.794;2023-08-20T05:22:01;7.18;;;5.43;;
60867;SDS011;46702;48.370;10.794;2023-08-20T05:24:27;7.00;;;5.45;;
60867;SDS011;46702;48.370;10.794;2023-08-20T05:29:31;7.28;;;5.35;;
60867;SDS011;46702;48.370;10.794;2023-08-20T05:31:56;6.20;;;5.05;;
60867;SDS011;46702;48.370;10.794;2023-08-20T05:34:22;7.60;;;5.65;;
60867;SDS011;46702;48.370;10.794;2023-08-20T05:36:48;8.57;;;5.55;;
60867;SDS011;46702;48.370;10.794;2023-08-20T05:39:13;8.60;;;6.30;;
60867;SDS011;46702;48.370;10.794;2023-08-20T05:41:39;8.32;;;5.63;;
60867;SDS011;46702;48.370;10.794;2023-08-20T05:44:04;6.97;;;6.03;;
60867;SDS011;46702;48.370;10.794;2023-08-20T05:46:30;8.10;;;5.85;;
60867;SDS011;46702;48.370;10.794;2023-08-20T05:48:56;7.43;;;6.05;;
60867;SDS011;46702;48.370;10.794;2023-08-20T05:51:21;8.25;;;6.03;;
60867;SDS011;46702;48.370;10.794;2023-08-20T05:53:47;11.30;;;6.60;;
60867;SDS011;46702;48.370;10.794;2023-08-20T05:56:12;9.95;;;6.72;;
60867;SDS011;46702;48.370;10.794;2023-08-20T05:58:38;10.57;;;6.95;;
60867;SDS011;46702;48.370;10.794;2023-08-20T06:01:03;8.52;;;6.95;;
60867;SDS011;46702;48.370;10.794;2023-08-20T06:03:29;10.02;;;7.10;;
60867;SDS011;46702;48.370;10.794;2023-08-20T06:05:56;9.25;;;6.35;;
60867;SDS011;46702;48.370;10.794;2023-08-20T06:08:22;8.73;;;6.63;;
60867;SDS011;46702;48.370;10.794;2023-08-20T06:10:48;9.07;;;6.93;;
60867;SDS011;46702;48.370;10.794;2023-08-20T06:13:13;9.68;;;7.25;;
60867;SDS011;46702;48.370;10.794;2023-08-20T06:15:39;8.10;;;7.18;;
60867;SDS011;46702;48.370;10.794;2023-08-20T06:18:05;10.73;;;7.38;;
60867;SDS011;46702;48.370;10.794;2023-08-20T06:20:30;11.57;;;7.82;;
60867;SDS011;46702;48.370;10.794;2023-08-20T06:22:56;10.10;;;7.03;;
60867;SDS011;46702;48.370;10.794;2023-08-20T06:25:21;8.25;;;6.40;;
60867;SDS011;46702;48.370;10.794;2023-08-20T06:27:47;9.13;;;7.80;;
60867;SDS011;46702;48.370;10.794;2023-08-20T06:30:13;8.25;;;7.07;;
60867;SDS011;46702;48.370;10.794;2023-08-20T06:32:38;10.73;;;6.97;;
60867;SDS011;46702;48.370;10.794;2023-08-20T06:35:04;11.90;;;7.55;;
60867;SDS011;46702;48.370;10.794;2023-08-20T06:37:30;9.52;;;7.15;;
60867;SDS011;46702;48.370;10.794;2023-08-20T06:39:56;9.27;;;7.35;;
60867;SDS011;46702;48.370;10.794;2023-08-20T06:42:21;11.90;;;7.68;;
60867;SDS011;46702;48.370;10.794;2023-08-20T06:44:47;9.75;;;7.65;;
60867;SDS011;46702;48.370;10.794;2023-08-20T06:47:12;8.88;;;6.72;;
60867;SDS011;46702;48.370;10.794;2023-08-20T06:49:40;15.88;;;7.78;;
60867;SDS011;46702;48.370;10.794;2023-08-20T06:52:05;10.30;;;7.72;;
60867;SDS011;46702;48.370;10.794;2023-08-20T06:54:31;9.38;;;6.97;;
60867;SDS011;46702;48.370;10.794;2023-08-20T06:56:56;11.13;;;7.70;;
60867;SDS011;46702;48.370;10.794;2023-08-20T06:59:22;8.38;;;7.05;;
60867;SDS011;46702;48.370;10.794;2023-08-20T07:01:48;8.77;;;6.68;;
60867;SDS011;46702;48.370;10.794;2023-08-20T07:04:14;7.75;;;6.95;;
60867;SDS011;46702;48.370;10.794;2023-08-20T07:06:39;9.50;;;7.00;;
60867;SDS011;46702;48.370;10.794;2023-08-20T07:09:05;9.25;;;7.15;;
60867;SDS011;46702;48.370;10.794;2023-08-20T07:11:31;9.85;;;6.82;;
60867;SDS011;46702;48.370;10.794;2023-08-20T07:13:56;9.07;;;7.65;;
60867;SDS011;46702;48.370;10.794;2023-08-20T07:16:22;10.05;;;7.25;;
60867;SDS011;46702;48.370;10.794;2023-08-20T07:18:47;8.05;;;6.68;;
60867;SDS011;46702;48.370;10.794;2023-08-20T07:21:13;11.13;;;7.47;;
60867;SDS011;46702;48.370;10.794;2023-08-20T07:23:39;10.05;;;7.18;;
60867;SDS011;46702;48.370;10.794;2023-08-20T07:26:05;9.10;;;6.88;;
60867;SDS011;46702;48.370;10.794;2023-08-20T07:28:33;8.48;;;6.80;;
60867;SDS011;46702;48.370;10.794;2023-08-20T07:31:17;11.85;;;7.03;;
60867;SDS011;46702;48.370;10.794;2023-08-20T07:33:46;12.48;;;6.90;;
60867;SDS011;46702;48.370;10.794;2023-08-20T07:36:15;9.32;;;6.78;;
60867;SDS011;46702;48.370;10.794;2023-08-20T07:38:42;8.60;;;7.45;;
60867;SDS011;46702;48.370;10.794;2023-08-20T07:41:08;7.07;;;6.28;;
60867;SDS011;46702;48.370;10.794;2023-08-20T07:43:34;10.23;;;7.40;;
60867;SDS011;46702;48.370;10.794;2023-08-20T07:46:01;8.35;;;6.07;;
60867;SDS011;46702;48.370;10.794;2023-08-20T07:48:26;9.07;;;7.10;;
60867;SDS011;46702;48.370;10.794;2023-08-20T07:50:52;9.38;;;7.70;;
60867;SDS011;46702;48.370;10.794;2023-08-20T07:53:17;8.98;;;6.95;;
60867;SDS011;46702;48.370;10.794;2023-08-20T07:55:43;10.00;;;6.78;;
60867;SDS011;46702;48.370;10.794;2023-08-20T07:58:09;8.18;;;6.70;;
60867;SDS011;46702;48.370;10.794;2023-08-20T08:00:34;8.30;;;7.25;;
60867;SDS011;46702;48.370;10.794;2023-08-20T08:03:00;7.07;;;6.10;;
60867;SDS011;46702;48.370;10.794;2023-08-20T08:05:26;8.63;;;7.10;;
60867;SDS011;46702;48.370;10.794;2023-08-20T08:07:51;8.75;;;6.40;;
60867;SDS011;46702;48.370;10.794;2023-08-20T08:10:17;9.98;;;7.07;;
60867;SDS011;46702;48.370;10.794;2023-08-20T08:12:43;7.55;;;6.75;;
60867;SDS011;46702;48.370;10.794;2023-08-20T08:15:08;7.13;;;6.18;;
60867;SDS011;46702;48.370;10.794;2023-08-20T08:17:34;9.73;;;6.15;;
60867;SDS011;46702;48.370;10.794;2023-08-20T08:20:00;7.53;;;5.93;;
60867;SDS011;46702;48.370;10.794;2023-08-20T08:22:25;8.20;;;5.97;;
60867;SDS011;46702;48.370;10.794;2023-08-20T08:24:51;7.35;;;6.20;;
60867;SDS011;46702;48.370;10.794;2023-08-20T08:27:17;6.47;;;5.80;;
60867;SDS011;46702;48.370;10.794;2023-08-20T08:29:43;9.00;;;6.03;;
60867;SDS011;46702;48.370;10.794;2023-08-20T08:32:09;7.30;;;5.75;;
60867;SDS011;46702;48.370;10.794;2023-08-20T08:34:35;8.40;;;6.68;;
60867;SDS011;46702;48.370;10.794;2023-08-20T08:37:00;7.13;;;6.20;;
60867;SDS011;46702;48.370;10.794;2023-08-20T08:39:26;6.63;;;5.70;;
60867;SDS011;46702;48.370;10.794;2023-08-20T08:41:52;8.00;;;5.70;;
60867;SDS011;46702;48.370;10.794;2023-08-20T08:44:24;6.93;;;6.22;;
60867;SDS011;46702;48.370;10.794;2023-08-20T08:46:50;7.93;;;5.72;;
60867;SDS011;46702;48.370;10.794;2023-08-20T08:49:16;9.43;;;6.28;;
60867;SDS011;46702;48.370;10.794;2023-08-20T08:51:43;6.85;;;5.95;;
60867;SDS011;46702;48.370;10.794;2023-08-20T08:54:13;8.25;;;5.90;;
60867;SDS011;46702;48.370;10.794;2023-08-20T08:56:40;9.10;;;6.57;;
60867;SDS011;46702;48.370;10.794;2023-08-20T08:59:05;6.60;;;5.95;;
60867;SDS011;46702;48.370;10.794;2023-08-20T09:01:31;7.28;;;5.78;;
60867;SDS011;46702;48.370;10.794;2023-08-20T09:03:57;6.05;;;5.43;;
60867;SDS011;46702;48.370;10.794;2023-08-20T09:06:22;8.35;;;6.15;;
60867;SDS011;46702;48.370;10.794;2023-08-20T09:08:48;7.13;;;5.40;;
60867;SDS011;46702;48.370;10.794;2023-08-20T09:11:13;6.15;;;5.60;;
60867;SDS011;46702;48.370;10.794;2023-08-20T09:13:41;8.90;;;4.93;;
60867;SDS011;46702;48.370;10.794;2023-08-20T09:16:09;9.85;;;6.00;;
60867;SDS011;46702;48.370;10.794;2023-08-20T09:18:39;6.78;;;5.32;;
60867;SDS011;46702;48.370;10.794;2023-08-20T09:21:07;6.43;;;5.82;;
60867;SDS011;46702;48.370;10.794;2023-08-20T09:23:33;8.63;;;5.88;;
60867;SDS011;46702;48.370;10.794;2023-08-20T09:26:00;7.95;;;5.70;;
60867;SDS011;46702;48.370;10.794;2023-08-20T09:28:27;4.38;;;3.90;;
60867;SDS011;46702;48.370;10.794;2023-08-20T09:30:56;4.97;;;3.80;;
60867;SDS011;46702;48.370;10.794;2023-08-20T09:33:22;4.50;;;3.95;;
60867;SDS011;46702;48.370;10.794;2023-08-20T09:38:23;7.70;;;4.38;;
60867;SDS011;46702;48.370;10.794;2023-08-20T09:40:53;7.75;;;5.90;;
60867;SDS011;46702;48.370;10.794;2023-08-20T09:43:22;11.43;;;10.13;;
60867;SDS011;46702;48.370;10.794;2023-08-20T09:45:53;7.35;;;5.45;;
60867;SDS011;46702;48.370;10.794;2023-08-20T09:48:21;6.85;;;5.50;;
60867;SDS011;46702;48.370;10.794;2023-08-20T09:53:26;5.18;;;4.45;;
60867;SDS011;46702;48.370;10.794;2023-08-20T09:55:55;4.90;;;4.28;;
60867;SDS011;46702;48.370;10.794;2023-08-20T09:58:28;8.50;;;6.70;;
60867;SDS011;46702;48.370;10.794;2023-08-20T10:03:21;15.75;;;7.47;;
60867;SDS011;46702;48.370;10.794;2023-08-20T10:05:48;12.38;;;6.95;;
60867;SDS011;46702;48.370;10.794;2023-08-20T10:08:19;7.20;;;5.45;;
60867;SDS011;46702;48.370;10.794;2023-08-20T10:10:45;5.80;;;5.05;;
60867;SDS011;46702;48.370;10.794;2023-08-20T10:13:12;7.35;;;4.22;;
60867;SDS011;46702;48.370;10.794;2023-08-20T10:15:39;5.97;;;3.88;;
60867;SDS011;46702;48.370;10.794;2023-08-20T10:18:07;5.82;;;4.15;;
60867;SDS011;46702;48.370;10.794;2023-08-20T10:20:33;5.63;;;4.28;;
60867;SDS011;46702;48.370;10.794;2023-08-20T10:23:02;24.70;;;10.73;;
60867;SDS011;46702;48.370;10.794;2023-08-20T10:25:29;5.47;;;4.03;;
60867;SDS011;46702;48.370;10.794;2023-08-20T10:28:10;5.45;;;4.10;;
60867;SDS011;46702;48.370;10.794;2023-08-20T10:33:31;6.37;;;4.43;;
60867;SDS011;46702;48.370;10.794;2023-08-20T10:35:58;5.95;;;4.18;;
60867;SDS011;46702;48.370;10.794;2023-08-20T10:38:38;6.07;;;4.00;;
60867;SDS011;46702;48.370;10.794;2023-08-20T10:41:08;8.65;;;4.25;;
60867;SDS011;46702;48.370;10.794;2023-08-20T10:46:06;5.95;;;4.35;;
60867;SDS011;46702;48.370;10.794;2023-08-20T10:48:43;6.15;;;4.45;;
60867;SDS011;46702;48.370;10.794;2023-08-20T10:51:19;8.02;;;4.60;;
60867;SDS011;46702;48.370;10.794;2023-08-20T10:54:02;7.40;;;4.10;;
60867;SDS011;46702;48.370;10.794;2023-08-20T10:56:40;8.15;;;4.55;;
60867;SDS011;46702;48.370;10.794;2023-08-20T11:01:43;4.47;;;3.88;;
60867;SDS011;46702;48.370;10.794;2023-08-20T11:04:17;5.28;;;4.22;;
60867;SDS011;46702;48.370;10.794;2023-08-20T11:06:47;4.78;;;4.28;;
60867;SDS011;46702;48.370;10.794;2023-08-20T11:09:17;5.75;;;3.55;;
60867;SDS011;46702;48.370;10.794;2023-08-20T11:11:43;5.53;;;4.00;;
60867;SDS011;46702;48.370;10.794;2023-08-20T11:14:13;4.43;;;3.47;;
60867;SDS011;46702;48.370;10.794;2023-08-20T11:16:40;4.47;;;3.67;;
60867;SDS011;46702;48.370;10.794;2023-08-20T11:19:06;5.63;;;3.95;;
60867;SDS011;46702;48.370;10.794;2023-08-20T11:21:35;6.15;;;3.80;;
60867;SDS011;46702;48.370;10.794;2023-08-20T11:24:05;5.22;;;3.53;;
60867;SDS011;46702;48.370;10.794;2023-08-20T11:26:35;6.90;;;3.80;;
60867;SDS011;46702;48.370;10.794;2023-08-20T11:29:07;6.53;;;4.10;;
60867;SDS011;46702;48.370;10.794;2023-08-20T11:31:33;4.90;;;3.92;;
60867;SDS011;46702;48.370;10.794;2023-08-20T11:34:03;4.10;;;3.50;;
60867;SDS011;46702;48.370;10.794;2023-08-20T11:36:28;3.58;;;3.05;;
60867;SDS011;46702;48.370;10.794;2023-08-20T11:38:54;4.45;;;3.50;;
60867;SDS011;46702;48.370;10.794;2023-08-20T11:41:20;6.05;;;3.65;;
60867;SDS011;46702;48.370;10.794;2023-08-20T11:43:47;6.07;;;3.40;;
60867;SDS011;46702;48.370;10.794;2023-08-20T11:46:13;7.13;;;3.70;;
60867;SDS011;46702;48.370;10.794;2023-08-20T11:51:35;8.15;;;3.30;;
60867;SDS011;46702;48.370;10.794;2023-08-20T11:54:04;5.93;;;3.17;;
60867;SDS011;46702;48.370;10.794;2023-08-20T11:56:32;5.10;;;3.03;;
60867;SDS011;46702;48.370;10.794;2023-08-20T11:58:59;4.60;;;3.05;;
60867;SDS011;46702;48.370;10.794;2023-08-20T12:01:25;4.75;;;3.33;;
60867;SDS011;46702;48.370;10.794;2023-08-20T12:03:59;3.75;;;3.35;;
60867;SDS011;46702;48.370;10.794;2023-08-20T12:08:59;5.45;;;3.00;;
60867;SDS011;46702;48.370;10.794;2023-08-20T12:11:26;4.57;;;3.17;;
60867;SDS011;46702;48.370;10.794;2023-08-20T12:16:18;5.43;;;3.53;;
60867;SDS011;46702;48.370;10.794;2023-08-20T12:18:46;3.75;;;3.20;;
60867;SDS011;46702;48.370;10.794;2023-08-20T12:21:12;4.60;;;3.10;;
60867;SDS011;46702;48.370;10.794;2023-08-20T12:23:38;3.47;;;2.80;;
60867;SDS011;46702;48.370;10.794;2023-08-20T12:26:04;4.22;;;3.00;;
60867;SDS011;46702;48.370;10.794;2023-08-20T12:28:29;3.53;;;2.78;;
60867;SDS011;46702;48.370;10.794;2023-08-20T12:30:55;5.13;;;2.88;;
60867;SDS011;46702;48.370;10.794;2023-08-20T12:33:21;6.43;;;3.25;;
60867;SDS011;46702;48.370;10.794;2023-08-20T12:35:47;6.05;;;3.15;;
60867;SDS011;46702;48.370;10.794;2023-08-20T12:38:19;5.47;;;3.22;;
60867;SDS011;46702;48.370;10.794;2023-08-20T12:41:01;4.50;;;2.90;;
60867;SDS011;46702;48.370;10.794;2023-08-20T12:43:35;4.72;;;3.03;;
60867;SDS011;46702;48.370;10.794;2023-08-20T12:46:12;4.30;;;2.80;;
60867;SDS011;46702;48.370;10.794;2023-08-20T12:48:48;3.92;;;3.10;;
60867;SDS011;46702;48.370;10.794;2023-08-20T12:51:21;4.32;;;2.85;;
60867;SDS011;46702;48.370;10.794;2023-08-20T12:53:59;4.85;;;2.92;;
60867;SDS011;46702;48.370;10.794;2023-08-20T12:56:25;5.53;;;3.20;;
60867;SDS011;46702;48.370;10.794;2023-08-20T12:58:51;3.85;;;2.75;;
60867;SDS011;46702;48.370;10.794;2023-08-20T13:01:17;3.10;;;2.80;;
60867;SDS011;46702;48.370;10.794;2023-08-20T13:03:44;3.95;;;2.70;;
60867;SDS011;46702;48.370;10.794;2023-08-20T13:06:13;3.92;;;2.90;;
60867;SDS011;46702;48.370;10.794;2023-08-20T13:08:39;4.28;;;3.28;;
60867;SDS011;46702;48.370;10.794;2023-08-20T13:11:07;4.25;;;2.90;;
60867;SDS011;46702;48.370;10.794;2023-08-20T13:13:34;3.67;;;2.85;;
60867;SDS011;46702;48.370;10.794;2023-08-20T13:16:00;5.00;;;2.88;;
60867;SDS011;46702;48.370;10.794;2023-08-20T13:18:27;5.38;;;3.10;;
60867;SDS011;46702;48.370;10.794;2023-08-20T13:20:53;11.18;;;4.40;;
60867;SDS011;46702;48.370;10.794;2023-08-20T13:23:21;7.93;;;4.28;;
60867;SDS011;46702;48.370;10.794;2023-08-20T13:25:47;10.35;;;4.70;;
60867;SDS011;46702;48.370;10.794;2023-08-20T13:28:12;8.20;;;3.45;;
60867;SDS011;46702;48.370;10.794;2023-08-20T13:30:38;6.18;;;2.92;;
60867;SDS011;46702;48.370;10.794;2023-08-20T13:33:04;5.15;;;2.90;;
60867;SDS011;46702;48.370;10.794;2023-08-20T13:35:30;4.55;;;2.78;;
60867;SDS011;46702;48.370;10.794;2023-08-20T13:37:56;3.53;;;2.72;;
60867;SDS011;46702;48.370;10.794;2023-08-20T13:40:21;3.83;;;2.80;;
60867;SDS011;46702;48.370;10.794;2023-08-20T13:42:47;5.28;;;2.90;;
60867;SDS011;46702;48.370;10.794;2023-08-20T13:45:13;3.85;;;2.70;;
60867;SDS011;46702;48.370;10.794;2023-08-20T13:47:38;3.50;;;2.75;;
60867;SDS011;46702;48.370;10.794;2023-08-20T13:50:04;3.15;;;2.70;;
60867;SDS011;46702;48.370;10.794;2023-08-20T13:52:30;3.08;;;2.60;;
60867;SDS011;46702;48.370;10.794;2023-08-20T13:54:56;5.20;;;2.90;;
60867;SDS011;46702;48.370;10.794;2023-08-20T13:57:21;3.22;;;2.92;;
60867;SDS011;46702;48.370;10.794;2023-08-20T13:59:47;4.45;;;2.70;;
60867;SDS011;46702;48.370;10.794;2023-08-20T14:02:14;2.90;;;2.65;;
60867;SDS011;46702;48.370;10.794;2023-08-20T14:04:39;3.85;;;2.75;;
60867;SDS011;46702;48.370;10.794;2023-08-20T14:07:05;4.18;;;2.55;;
60867;SDS011;46702;48.370;10.794;2023-08-20T14:09:31;5.28;;;2.70;;
60867;SDS011;46702;48.370;10.794;2023-08-20T14:11:59;3.20;;;2.70;;
60867;SDS011;46702;48.370;10.794;2023-08-20T14:14:25;3.05;;;2.70;;
60867;SDS011;46702;48.370;10.794;2023-08-20T14:16:50;4.70;;;3.00;;
60867;SDS011;46702;48.370;10.794;2023-08-20T14:19:19;3.22;;;2.60;;
60867;SDS011;46702;48.370;10.794;2023-08-20T14:21:45;4.35;;;2.97;;
60867;SDS011;46702;48.370;10.794;2023-08-20T14:24:11;4.22;;;3.08;;
60867;SDS011;46702;48.370;10.794;2023-08-20T14:26:37;4.38;;;2.85;;
60867;SDS011;46702;48.370;10.794;2023-08-20T14:29:05;3.67;;;2.58;;
60867;SDS011;46702;48.370;10.794;2023-08-20T14:31:31;4.03;;;2.83;;
60867;SDS011;46702;48.370;10.794;2023-08-20T14:33:57;5.30;;;2.85;;
60867;SDS011;46702;48.370;10.794;2023-08-20T14:36:22;3.80;;;2.63;;
60867;SDS011;46702;48.370;10.794;2023-08-20T14:38:48;5.43;;;2.90;;
60867;SDS011;46702;48.370;10.794;2023-08-20T14:41:13;4.13;;;2.58;;
60867;SDS011;46702;48.370;10.794;2023-08-20T14:43:39;4.53;;;2.78;;
60867;SDS011;46702;48.370;10.794;2023-08-20T14:46:06;3.17;;;2.58;;
60867;SDS011;46702;48.370;10.794;2023-08-20T14:48:32;4.65;;;2.60;;
60867;SDS011;46702;48.370;10.794;2023-08-20T14:51:00;3.92;;;2.95;;
60867;SDS011;46702;48.370;10.794;2023-08-20T14:53:25;6.45;;;2.70;;
60867;SDS011;46702;48.370;10.794;2023-08-20T14:55:51;3.45;;;2.58;;
60867;SDS011;46702;48.370;10.794;2023-08-20T14:58:17;3.35;;;3.03;;
60867;SDS011;46702;48.370;10.794;2023-08-20T15:00:42;5.00;;;2.78;;
60867;SDS011;46702;48.370;10.794;2023-08-20T15:03:08;3.92;;;2.78;;
60867;SDS011;46702;48.370;10.794;2023-08-20T15:05:33;4.38;;;2.63;;
60867;SDS011;46702;48.370;10.794;2023-08-20T15:08:08;7.18;;;2.78;;
60867;SDS011;46702;48.370;10.794;2023-08-20T15:11:23;4.80;;;3.00;;
60867;SDS011;46702;48.370;10.794;2023-08-20T15:14:13;3.63;;;2.65;;